sensor_id;sensor_type;location;lat;lon;timestamp;temperature;humidity
75262;DHT22;63859;51.064;4.580;2023-02-11T00:03:51;6.00;99.90
75262;DHT22;63859;51.064;4.580;2023-02-11T00:06:16;6.00;99.90
75262;DHT22;63859;51.064;4.580;2023-02-11T00:08:42;6.00;99.90
75262;DHT22;63859;51.064;4.580;2023-02-11T00:11:14;6.00;99.90
75262;DHT22;63859;51.064;4.580;2023-02-11T00:13:41;5.90;99.90
75262;DHT22;63859;51.064;4.580;2023-02-11T00:16:08;6.00;99.90
75262;DHT22;63859;51.064;4.580;2023-02-11T00:18:34;5.90;99.90
75262;DHT22;63859;51.064;4.580;2023-02-11T00:21:14;6.00;99.90
75262;DHT22;63859;51.064;4.580;2023-02-11T00:23:40;5.90;99.90
75262;DHT22;63859;51.064;4.580;2023-02-11T00:26:23;6.10;99.90
75262;DHT22;63859;51.064;4.580;2023-02-11T00:28:50;5.90;99.90
75262;DHT22;63859;51.064;4.580;2023-02-11T00:31:17;5.90;99.90
75262;DHT22;63859;51.064;4.580;2023-02-11T00:33:43;5.80;99.90
75262;DHT22;63859;51.064;4.580;2023-02-11T00:36:13;5.80;99.90
75262;DHT22;63859;51.064;4.580;2023-02-11T00:38:41;6.00;99.90
75262;DHT22;63859;51.064;4.580;2023-02-11T00:41:06;5.80;99.90
75262;DHT22;63859;51.064;4.580;2023-02-11T00:43:32;5.80;99.90
75262;DHT22;63859;51.064;4.580;2023-02-11T00:45:58;5.70;99.90
75262;DHT22;63859;51.064;4.580;2023-02-11T00:48:23;5.70;99.90
75262;DHT22;63859;51.064;4.580;2023-02-11T00:50:49;5.70;99.90
75262;DHT22;63859;51.064;4.580;2023-02-11T00:53:15;5.70;99.90
75262;DHT22;63859;51.064;4.580;2023-02-11T00:55:40;5.70;99.90
75262;DHT22;63859;51.064;4.580;2023-02-11T00:58:06;5.70;99.90
75262;DHT22;63859;51.064;4.580;2023-02-11T01:00:32;5.70;99.90
75262;DHT22;63859;51.064;4.580;2023-02-11T01:02:57;5.70;99.90
75262;DHT22;63859;51.064;4.580;2023-02-11T01:05:23;5.60;99.90
75262;DHT22;63859;51.064;4.580;2023-02-11T01:07:49;5.70;99.90
75262;DHT22;63859;51.064;4.580;2023-02-11T01:10:15;5.60;99.90
75262;DHT22;63859;51.064;4.580;2023-02-11T01:12:40;5.60;99.90
75262;DHT22;63859;51.064;4.580;2023-02-11T01:15:07;5.70;99.90
75262;DHT22;63859;51.064;4.580;2023-02-11T01:17:34;5.60;99.90
75262;DHT22;63859;51.064;4.580;2023-02-11T01:20:06;5.60;99.90
75262;DHT22;63859;51.064;4.580;2023-02-11T01:22:32;5.60;99.90
75262;DHT22;63859;51.064;4.580;2023-02-11T01:24:59;5.60;99.90
75262;DHT22;63859;51.064;4.580;2023-02-11T01:27:25;5.60;99.90
75262;DHT22;63859;51.064;4.580;2023-02-11T01:29:50;5.60;99.90
75262;DHT22;63859;51.064;4.580;2023-02-11T01:32:16;5.60;99.90
75262;DHT22;63859;51.064;4.580;2023-02-11T01:34:42;5.60;99.90
75262;DHT22;63859;51.064;4.580;2023-02-11T01:37:07;5.60;99.90
75262;DHT22;63859;51.064;4.580;2023-02-11T01:39:34;5.60;99.90
75262;DHT22;63859;51.064;4.580;2023-02-11T01:42:00;5.60;99.90
75262;DHT22;63859;51.064;4.580;2023-02-11T01:46:57;5.70;99.90
75262;DHT22;63859;51.064;4.580;2023-02-11T01:49:29;5.70;99.90
75262;DHT22;63859;51.064;4.580;2023-02-11T01:52:18;5.70;99.90
75262;DHT22;63859;51.064;4.580;2023-02-11T01:54:51;5.70;99.90
75262;DHT22;63859;51.064;4.580;2023-02-11T01:57:39;5.70;99.90
75262;DHT22;63859;51.064;4.580;2023-02-11T02:00:13;5.80;99.90
75262;DHT22;63859;51.064;4.580;2023-02-11T02:02:56;5.80;99.90
75262;DHT22;63859;51.064;4.580;2023-02-11T02:10:45;5.80;99.90
75262;DHT22;63859;51.064;4.580;2023-02-11T02:13:12;5.90;99.90
75262;DHT22;63859;51.064;4.580;2023-02-11T02:15:48;5.80;99.90
75262;DHT22;63859;51.064;4.580;2023-02-11T02:24:18;5.90;99.90
75262;DHT22;63859;51.064;4.580;2023-02-11T02:27:18;5.90;99.90
75262;DHT22;63859;51.064;4.580;2023-02-11T02:38:33;5.90;99.90
75262;DHT22;63859;51.064;4.580;2023-02-11T02:41:12;5.90;99.90
75262;DHT22;63859;51.064;4.580;2023-02-11T02:43:44;5.90;99.90
75262;DHT22;63859;51.064;4.580;2023-02-11T02:46:24;5.90;99.90
75262;DHT22;63859;51.064;4.580;2023-02-11T02:48:51;5.90;99.90
75262;DHT22;63859;51.064;4.580;2023-02-11T03:03:27;6.00;99.90
75262;DHT22;63859;51.064;4.580;2023-02-11T03:11:03;6.00;99.90
75262;DHT22;63859;51.064;4.580;2023-02-11T03:13:33;6.00;99.90
75262;DHT22;63859;51.064;4.580;2023-02-11T03:16:06;6.00;99.90
75262;DHT22;63859;51.064;4.580;2023-02-11T03:18:34;6.00;99.90
75262;DHT22;63859;51.064;4.580;2023-02-11T03:21:02;6.00;99.90
75262;DHT22;63859;51.064;4.580;2023-02-11T03:23:34;6.00;99.90
75262;DHT22;63859;51.064;4.580;2023-02-11T03:26:13;6.00;99.90
75262;DHT22;63859;51.064;4.580;2023-02-11T03:34:30;6.00;99.90
75262;DHT22;63859;51.064;4.580;2023-02-11T03:37:31;6.00;99.90
75262;DHT22;63859;51.064;4.580;2023-02-11T03:40:12;6.00;99.90
75262;DHT22;63859;51.064;4.580;2023-02-11T03:42:44;6.00;99.90
75262;DHT22;63859;51.064;4.580;2023-02-11T03:45:14;6.00;99.90
75262;DHT22;63859;51.064;4.580;2023-02-11T03:47:45;5.90;99.90
75262;DHT22;63859;51.064;4.580;2023-02-11T03:50:14;6.00;99.90
75262;DHT22;63859;51.064;4.580;2023-02-11T03:52:41;6.00;99.90
75262;DHT22;63859;51.064;4.580;2023-02-11T03:55:14;6.00;99.90
75262;DHT22;63859;51.064;4.580;2023-02-11T03:57:40;6.00;99.90
75262;DHT22;63859;51.064;4.580;2023-02-11T04:00:07;6.00;99.90
75262;DHT22;63859;51.064;4.580;2023-02-11T04:02:34;6.00;99.90
75262;DHT22;63859;51.064;4.580;2023-02-11T04:05:00;6.00;99.90
75262;DHT22;63859;51.064;4.580;2023-02-11T04:07:27;6.00;99.90
75262;DHT22;63859;51.064;4.580;2023-02-11T04:09:52;6.00;99.90
75262;DHT22;63859;51.064;4.580;2023-02-11T04:12:18;6.00;99.90
75262;DHT22;63859;51.064;4.580;2023-02-11T04:14:44;6.10;99.90
75262;DHT22;63859;51.064;4.580;2023-02-11T04:17:11;6.00;99.90
75262;DHT22;63859;51.064;4.580;2023-02-11T04:19:37;6.10;99.90
75262;DHT22;63859;51.064;4.580;2023-02-11T04:22:03;6.00;99.90
75262;DHT22;63859;51.064;4.580;2023-02-11T04:24:29;6.00;99.90
75262;DHT22;63859;51.064;4.580;2023-02-11T04:26:54;6.00;99.90
75262;DHT22;63859;51.064;4.580;2023-02-11T04:29:20;6.00;99.90
75262;DHT22;63859;51.064;4.580;2023-02-11T04:31:46;6.00;99.90
75262;DHT22;63859;51.064;4.580;2023-02-11T04:34:12;6.00;99.90
75262;DHT22;63859;51.064;4.580;2023-02-11T04:36:37;6.20;99.90
75262;DHT22;63859;51.064;4.580;2023-02-11T04:39:03;6.00;99.90
75262;DHT22;63859;51.064;4.580;2023-02-11T04:41:29;6.10;99.90
75262;DHT22;63859;51.064;4.580;2023-02-11T04:43:55;6.00;99.90
75262;DHT22;63859;51.064;4.580;2023-02-11T04:46:20;6.00;99.90
75262;DHT22;63859;51.064;4.580;2023-02-11T04:48:46;6.00;99.90
75262;DHT22;63859;51.064;4.580;2023-02-11T04:51:12;6.00;99.90
75262;DHT22;63859;51.064;4.580;2023-02-11T04:53:37;6.10;99.90
75262;DHT22;63859;51.064;4.580;2023-02-11T04:56:03;6.00;99.90
75262;DHT22;63859;51.064;4.580;2023-02-11T04:58:29;6.00;99.90
75262;DHT22;63859;51.064;4.580;2023-02-11T05:00:54;6.10;99.90
75262;DHT22;63859;51.064;4.580;2023-02-11T05:03:20;6.00;99.90
75262;DHT22;63859;51.064;4.580;2023-02-11T05:05:46;6.00;99.90
75262;DHT22;63859;51.064;4.580;2023-02-11T05:08:12;6.00;99.90
75262;DHT22;63859;51.064;4.580;2023-02-11T05:10:37;6.00;99.90
75262;DHT22;63859;51.064;4.580;2023-02-11T05:13:03;6.10;99.90
75262;DHT22;63859;51.064;4.580;2023-02-11T05:15:29;6.10;99.90
75262;DHT22;63859;51.064;4.580;2023-02-11T05:17:54;6.00;99.90
75262;DHT22;63859;51.064;4.580;2023-02-11T05:20:20;6.10;99.90
75262;DHT22;63859;51.064;4.580;2023-02-11T05:22:46;6.00;99.90
75262;DHT22;63859;51.064;4.580;2023-02-11T05:25:12;6.00;99.90
75262;DHT22;63859;51.064;4.580;2023-02-11T05:27:38;6.10;99.90
75262;DHT22;63859;51.064;4.580;2023-02-11T05:30:05;6.20;99.90
75262;DHT22;63859;51.064;4.580;2023-02-11T05:32:31;6.10;99.90
75262;DHT22;63859;51.064;4.580;2023-02-11T05:34:56;6.10;99.90
75262;DHT22;63859;51.064;4.580;2023-02-11T05:37:22;6.10;99.90
75262;DHT22;63859;51.064;4.580;2023-02-11T05:39:48;6.10;99.90
75262;DHT22;63859;51.064;4.580;2023-02-11T05:42:13;6.10;99.90
75262;DHT22;63859;51.064;4.580;2023-02-11T05:44:39;6.10;99.90
75262;DHT22;63859;51.064;4.580;2023-02-11T05:47:05;6.10;99.90
75262;DHT22;63859;51.064;4.580;2023-02-11T05:49:33;6.10;99.90
75262;DHT22;63859;51.064;4.580;2023-02-11T05:51:58;6.10;99.90
75262;DHT22;63859;51.064;4.580;2023-02-11T05:54:24;6.10;99.90
75262;DHT22;63859;51.064;4.580;2023-02-11T05:56:50;6.20;99.90
75262;DHT22;63859;51.064;4.580;2023-02-11T05:59:15;6.00;99.90
75262;DHT22;63859;51.064;4.580;2023-02-11T06:01:41;6.20;99.90
75262;DHT22;63859;51.064;4.580;2023-02-11T06:04:07;6.10;99.90
75262;DHT22;63859;51.064;4.580;2023-02-11T06:06:32;6.20;99.90
75262;DHT22;63859;51.064;4.580;2023-02-11T06:08:58;6.20;99.90
75262;DHT22;63859;51.064;4.580;2023-02-11T06:11:24;6.20;99.90
75262;DHT22;63859;51.064;4.580;2023-02-11T06:13:50;6.20;99.90
75262;DHT22;63859;51.064;4.580;2023-02-11T06:16:15;6.20;99.90
75262;DHT22;63859;51.064;4.580;2023-02-11T06:18:41;6.20;99.90
75262;DHT22;63859;51.064;4.580;2023-02-11T06:21:09;6.20;99.90
75262;DHT22;63859;51.064;4.580;2023-02-11T06:23:35;6.20;99.90
75262;DHT22;63859;51.064;4.580;2023-02-11T06:26:03;6.20;99.90
75262;DHT22;63859;51.064;4.580;2023-02-11T06:28:29;6.30;99.90
75262;DHT22;63859;51.064;4.580;2023-02-11T06:31:03;6.30;99.90
75262;DHT22;63859;51.064;4.580;2023-02-11T06:33:31;6.20;99.90
75262;DHT22;63859;51.064;4.580;2023-02-11T06:35:56;6.20;99.90
75262;DHT22;63859;51.064;4.580;2023-02-11T06:38:22;6.30;99.90
75262;DHT22;63859;51.064;4.580;2023-02-11T06:40:48;6.40;99.90
75262;DHT22;63859;51.064;4.580;2023-02-11T06:43:14;6.30;99.90
75262;DHT22;63859;51.064;4.580;2023-02-11T06:45:40;6.30;99.90
75262;DHT22;63859;51.064;4.580;2023-02-11T06:48:05;6.30;99.90
75262;DHT22;63859;51.064;4.580;2023-02-11T06:50:31;6.30;99.90
75262;DHT22;63859;51.064;4.580;2023-02-11T06:53:00;6.20;99.90
75262;DHT22;63859;51.064;4.580;2023-02-11T06:55:26;6.30;99.90
75262;DHT22;63859;51.064;4.580;2023-02-11T06:57:51;6.30;99.90
75262;DHT22;63859;51.064;4.580;2023-02-11T07:00:17;6.30;99.90
75262;DHT22;63859;51.064;4.580;2023-02-11T07:02:43;6.30;99.90
75262;DHT22;63859;51.064;4.580;2023-02-11T07:05:09;6.30;99.90
75262;DHT22;63859;51.064;4.580;2023-02-11T07:07:35;6.30;99.90
75262;DHT22;63859;51.064;4.580;2023-02-11T07:10:02;6.40;99.90
75262;DHT22;63859;51.064;4.580;2023-02-11T07:12:29;6.40;99.90
75262;DHT22;63859;51.064;4.580;2023-02-11T07:14:55;6.40;99.90
75262;DHT22;63859;51.064;4.580;2023-02-11T07:17:21;6.40;99.90
75262;DHT22;63859;51.064;4.580;2023-02-11T07:19:46;6.40;99.90
75262;DHT22;63859;51.064;4.580;2023-02-11T07:22:12;6.40;99.90
75262;DHT22;63859;51.064;4.580;2023-02-11T07:24:38;6.40;99.90
75262;DHT22;63859;51.064;4.580;2023-02-11T07:27:03;6.40;99.90
75262;DHT22;63859;51.064;4.580;2023-02-11T07:29:29;6.50;99.90
75262;DHT22;63859;51.064;4.580;2023-02-11T07:31:54;6.40;99.90
75262;DHT22;63859;51.064;4.580;2023-02-11T07:34:20;6.40;99.90
75262;DHT22;63859;51.064;4.580;2023-02-11T07:36:46;6.40;99.90
75262;DHT22;63859;51.064;4.580;2023-02-11T07:39:13;6.40;99.90
75262;DHT22;63859;51.064;4.580;2023-02-11T07:41:39;6.40;99.90
75262;DHT22;63859;51.064;4.580;2023-02-11T07:44:05;6.40;99.90
75262;DHT22;63859;51.064;4.580;2023-02-11T07:46:31;6.40;99.90
75262;DHT22;63859;51.064;4.580;2023-02-11T07:48:57;6.50;99.90
75262;DHT22;63859;51.064;4.580;2023-02-11T07:51:25;6.50;99.90
75262;DHT22;63859;51.064;4.580;2023-02-11T07:53:51;6.50;99.90
75262;DHT22;63859;51.064;4.580;2023-02-11T07:56:18;6.50;99.90
75262;DHT22;63859;51.064;4.580;2023-02-11T07:58:44;6.50;99.90
75262;DHT22;63859;51.064;4.580;2023-02-11T08:01:16;6.60;99.90
75262;DHT22;63859;51.064;4.580;2023-02-11T08:03:43;6.60;99.90
75262;DHT22;63859;51.064;4.580;2023-02-11T08:06:14;6.60;99.90
75262;DHT22;63859;51.064;4.580;2023-02-11T08:08:41;6.60;99.90
75262;DHT22;63859;51.064;4.580;2023-02-11T08:11:09;6.70;99.90
75262;DHT22;63859;51.064;4.580;2023-02-11T08:13:35;6.70;99.90
75262;DHT22;63859;51.064;4.580;2023-02-11T08:16:01;6.70;99.90
75262;DHT22;63859;51.064;4.580;2023-02-11T08:18:27;6.70;99.90
75262;DHT22;63859;51.064;4.580;2023-02-11T08:20:53;6.70;99.90
75262;DHT22;63859;51.064;4.580;2023-02-11T08:23:18;6.70;99.90
75262;DHT22;63859;51.064;4.580;2023-02-11T08:25:44;6.80;99.90
75262;DHT22;63859;51.064;4.580;2023-02-11T08:28:09;6.70;99.90
75262;DHT22;63859;51.064;4.580;2023-02-11T08:30:35;6.90;99.90
75262;DHT22;63859;51.064;4.580;2023-02-11T08:33:01;6.80;99.90
75262;DHT22;63859;51.064;4.580;2023-02-11T08:35:26;6.80;99.90
75262;DHT22;63859;51.064;4.580;2023-02-11T08:37:52;6.90;99.90
75262;DHT22;63859;51.064;4.580;2023-02-11T08:40:18;6.80;99.90
75262;DHT22;63859;51.064;4.580;2023-02-11T08:42:44;6.80;99.90
75262;DHT22;63859;51.064;4.580;2023-02-11T08:45:09;6.90;99.90
75262;DHT22;63859;51.064;4.580;2023-02-11T08:47:37;6.80;99.90
75262;DHT22;63859;51.064;4.580;2023-02-11T08:50:03;6.90;99.90
75262;DHT22;63859;51.064;4.580;2023-02-11T08:52:29;6.90;99.90
75262;DHT22;63859;51.064;4.580;2023-02-11T08:54:55;7.10;99.90
75262;DHT22;63859;51.064;4.580;2023-02-11T08:57:20;6.90;99.90
75262;DHT22;63859;51.064;4.580;2023-02-11T08:59:46;7.00;99.90
75262;DHT22;63859;51.064;4.580;2023-02-11T09:02:13;7.00;99.90
75262;DHT22;63859;51.064;4.580;2023-02-11T09:04:39;6.90;99.90
75262;DHT22;63859;51.064;4.580;2023-02-11T09:07:05;7.00;99.90
75262;DHT22;63859;51.064;4.580;2023-02-11T09:09:31;6.90;99.90
75262;DHT22;63859;51.064;4.580;2023-02-11T09:11:57;7.00;99.90
75262;DHT22;63859;51.064;4.580;2023-02-11T09:14:25;7.00;99.90
75262;DHT22;63859;51.064;4.580;2023-02-11T09:16:51;7.00;99.90
75262;DHT22;63859;51.064;4.580;2023-02-11T09:19:18;7.00;99.90
75262;DHT22;63859;51.064;4.580;2023-02-11T09:21:43;7.00;99.90
75262;DHT22;63859;51.064;4.580;2023-02-11T09:24:10;7.00;99.90
75262;DHT22;63859;51.064;4.580;2023-02-11T09:26:37;7.10;99.90
75262;DHT22;63859;51.064;4.580;2023-02-11T09:29:04;7.10;99.90
75262;DHT22;63859;51.064;4.580;2023-02-11T09:31:31;7.10;99.90
75262;DHT22;63859;51.064;4.580;2023-02-11T09:34:00;7.10;99.90
75262;DHT22;63859;51.064;4.580;2023-02-11T09:36:28;7.10;99.90
75262;DHT22;63859;51.064;4.580;2023-02-11T09:38:54;7.10;99.90
75262;DHT22;63859;51.064;4.580;2023-02-11T09:43:58;7.20;99.90
75262;DHT22;63859;51.064;4.580;2023-02-11T09:46:26;7.20;99.90
75262;DHT22;63859;51.064;4.580;2023-02-11T09:48:55;7.20;99.90
75262;DHT22;63859;51.064;4.580;2023-02-11T09:51:43;7.30;99.90
75262;DHT22;63859;51.064;4.580;2023-02-11T09:54:27;7.30;99.90
75262;DHT22;63859;51.064;4.580;2023-02-11T09:56:54;7.30;99.90
75262;DHT22;63859;51.064;4.580;2023-02-11T09:59:20;7.30;99.90
75262;DHT22;63859;51.064;4.580;2023-02-11T10:01:50;7.30;99.90
75262;DHT22;63859;51.064;4.580;2023-02-11T10:15:07;7.40;99.90
75262;DHT22;63859;51.064;4.580;2023-02-11T10:23:47;7.50;99.90
75262;DHT22;63859;51.064;4.580;2023-02-11T10:26:17;7.50;99.90
75262;DHT22;63859;51.064;4.580;2023-02-11T10:28:45;7.70;99.90
75262;DHT22;63859;51.064;4.580;2023-02-11T10:31:24;7.60;99.90
75262;DHT22;63859;51.064;4.580;2023-02-11T10:33:52;7.60;99.90
75262;DHT22;63859;51.064;4.580;2023-02-11T10:36:25;7.60;99.90
75262;DHT22;63859;51.064;4.580;2023-02-11T10:38:52;7.60;99.90
75262;DHT22;63859;51.064;4.580;2023-02-11T10:41:33;7.60;99.90
75262;DHT22;63859;51.064;4.580;2023-02-11T10:44:01;7.60;99.90
75262;DHT22;63859;51.064;4.580;2023-02-11T10:46:33;7.60;99.90
75262;DHT22;63859;51.064;4.580;2023-02-11T10:49:00;7.60;99.90
75262;DHT22;63859;51.064;4.580;2023-02-11T10:51:32;7.70;99.90
75262;DHT22;63859;51.064;4.580;2023-02-11T10:56:36;7.80;99.90
75262;DHT22;63859;51.064;4.580;2023-02-11T11:01:57;7.90;99.90
75262;DHT22;63859;51.064;4.580;2023-02-11T11:09:59;7.80;99.90
75262;DHT22;63859;51.064;4.580;2023-02-11T11:12:29;7.80;99.90
75262;DHT22;63859;51.064;4.580;2023-02-11T11:14:58;7.80;99.90
75262;DHT22;63859;51.064;4.580;2023-02-11T11:17:24;7.80;99.90
75262;DHT22;63859;51.064;4.580;2023-02-11T11:20:14;7.90;99.90
75262;DHT22;63859;51.064;4.580;2023-02-11T11:22:40;7.90;99.90
75262;DHT22;63859;51.064;4.580;2023-02-11T11:25:27;7.90;99.90
75262;DHT22;63859;51.064;4.580;2023-02-11T11:27:56;7.90;99.90
75262;DHT22;63859;51.064;4.580;2023-02-11T11:30:38;8.00;99.90
75262;DHT22;63859;51.064;4.580;2023-02-11T11:33:19;8.00;99.90
75262;DHT22;63859;51.064;4.580;2023-02-11T11:35:56;8.00;99.90
75262;DHT22;63859;51.064;4.580;2023-02-11T11:38:22;8.00;99.90
75262;DHT22;63859;51.064;4.580;2023-02-11T11:43:57;8.10;99.90
75262;DHT22;63859;51.064;4.580;2023-02-11T11:46:34;8.10;99.90
75262;DHT22;63859;51.064;4.580;2023-02-11T11:49:29;8.20;99.90
75262;DHT22;63859;51.064;4.580;2023-02-11T11:52:34;8.20;99.90
75262;DHT22;63859;51.064;4.580;2023-02-11T11:55:18;8.20;99.90
75262;DHT22;63859;51.064;4.580;2023-02-11T11:57:46;8.30;99.90
75262;DHT22;63859;51.064;4.580;2023-02-11T12:09:28;8.30;99.90
75262;DHT22;63859;51.064;4.580;2023-02-11T12:14:43;8.30;99.90
75262;DHT22;63859;51.064;4.580;2023-02-11T12:17:36;8.30;99.90
75262;DHT22;63859;51.064;4.580;2023-02-11T12:20:31;8.30;99.90
75262;DHT22;63859;51.064;4.580;2023-02-11T12:26:18;8.40;99.90
75262;DHT22;63859;51.064;4.580;2023-02-11T12:40:24;8.40;99.90
75262;DHT22;63859;51.064;4.580;2023-02-11T12:45:49;8.50;99.90
75262;DHT22;63859;51.064;4.580;2023-02-11T12:51:19;8.50;99.90
75262;DHT22;63859;51.064;4.580;2023-02-11T12:56:25;8.60;99.90
75262;DHT22;63859;51.064;4.580;2023-02-11T12:58:55;8.60;99.90
75262;DHT22;63859;51.064;4.580;2023-02-11T13:01:29;8.60;99.90
75262;DHT22;63859;51.064;4.580;2023-02-11T13:04:47;8.60;99.90
75262;DHT22;63859;51.064;4.580;2023-02-11T13:06:58;8.50;99.90
75262;DHT22;63859;51.064;4.580;2023-02-11T13:09:44;8.50;99.90
75262;DHT22;63859;51.064;4.580;2023-02-11T13:12:13;8.50;99.90
75262;DHT22;63859;51.064;4.580;2023-02-11T13:15:02;8.50;99.90
75262;DHT22;63859;51.064;4.580;2023-02-11T13:17:47;8.50;99.90
75262;DHT22;63859;51.064;4.580;2023-02-11T13:20:40;8.60;99.90
75262;DHT22;63859;51.064;4.580;2023-02-11T13:23:27;8.60;99.90
75262;DHT22;63859;51.064;4.580;2023-02-11T13:26:06;8.60;99.90
75262;DHT22;63859;51.064;4.580;2023-02-11T13:31:14;8.60;99.90
75262;DHT22;63859;51.064;4.580;2023-02-11T13:33:42;8.60;99.90
75262;DHT22;63859;51.064;4.580;2023-02-11T13:38:34;8.70;99.90
75262;DHT22;63859;51.064;4.580;2023-02-11T13:43:41;8.70;99.90
75262;DHT22;63859;51.064;4.580;2023-02-11T13:46:10;8.70;99.90
75262;DHT22;63859;51.064;4.580;2023-02-11T13:48:45;8.70;99.90
75262;DHT22;63859;51.064;4.580;2023-02-11T13:51:14;8.70;99.90
75262;DHT22;63859;51.064;4.580;2023-02-11T13:53:52;8.60;99.90
75262;DHT22;63859;51.064;4.580;2023-02-11T13:56:30;8.70;99.90
75262;DHT22;63859;51.064;4.580;2023-02-11T13:58:58;8.70;99.90
75262;DHT22;63859;51.064;4.580;2023-02-11T14:04:30;8.70;99.90
75262;DHT22;63859;51.064;4.580;2023-02-11T14:07:29;8.70;99.90
75262;DHT22;63859;51.064;4.580;2023-02-11T14:13:31;8.70;99.90
75262;DHT22;63859;51.064;4.580;2023-02-11T14:16:10;8.70;99.90
75262;DHT22;63859;51.064;4.580;2023-02-11T14:21:16;8.70;99.90
75262;DHT22;63859;51.064;4.580;2023-02-11T14:23:43;8.70;99.90
75262;DHT22;63859;51.064;4.580;2023-02-11T14:28:47;8.70;99.90
75262;DHT22;63859;51.064;4.580;2023-02-11T14:31:20;8.70;99.90
75262;DHT22;63859;51.064;4.580;2023-02-11T14:36:51;8.70;99.90
75262;DHT22;63859;51.064;4.580;2023-02-11T14:39:21;8.70;99.90
75262;DHT22;63859;51.064;4.580;2023-02-11T14:41:50;8.70;99.90
75262;DHT22;63859;51.064;4.580;2023-02-11T14:44:22;8.70;99.90
75262;DHT22;63859;51.064;4.580;2023-02-11T14:46:50;8.70;99.90
75262;DHT22;63859;51.064;4.580;2023-02-11T14:49:28;8.70;99.90
75262;DHT22;63859;51.064;4.580;2023-02-11T14:54:42;8.70;99.90
75262;DHT22;63859;51.064;4.580;2023-02-11T14:57:18;8.70;99.90
75262;DHT22;63859;51.064;4.580;2023-02-11T14:59:59;8.70;99.90
75262;DHT22;63859;51.064;4.580;2023-02-11T15:02:35;8.70;99.90
75262;DHT22;63859;51.064;4.580;2023-02-11T15:07:55;8.60;99.90
75262;DHT22;63859;51.064;4.580;2023-02-11T15:10:30;8.70;99.90
75262;DHT22;63859;51.064;4.580;2023-02-11T15:12:57;8.70;99.90
75262;DHT22;63859;51.064;4.580;2023-02-11T15:15:25;8.70;99.90
75262;DHT22;63859;51.064;4.580;2023-02-11T15:17:51;8.70;99.90
75262;DHT22;63859;51.064;4.580;2023-02-11T15:20:23;8.60;99.90
75262;DHT22;63859;51.064;4.580;2023-02-11T15:22:57;8.70;99.90
75262;DHT22;63859;51.064;4.580;2023-02-11T15:25:24;8.70;99.90
75262;DHT22;63859;51.064;4.580;2023-02-11T15:27:54;8.70;99.90
75262;DHT22;63859;51.064;4.580;2023-02-11T15:32:51;8.60;99.90
75262;DHT22;63859;51.064;4.580;2023-02-11T15:35:18;8.70;99.90
75262;DHT22;63859;51.064;4.580;2023-02-11T15:37:44;8.60;99.90
75262;DHT22;63859;51.064;4.580;2023-02-11T15:40:24;8.70;99.90
75262;DHT22;63859;51.064;4.580;2023-02-11T15:42:57;8.60;99.90
75262;DHT22;63859;51.064;4.580;2023-02-11T15:45:27;8.60;99.90
75262;DHT22;63859;51.064;4.580;2023-02-11T15:50:50;8.60;99.90
75262;DHT22;63859;51.064;4.580;2023-02-11T15:53:24;8.60;99.90
75262;DHT22;63859;51.064;4.580;2023-02-11T15:55:57;8.60;99.90
75262;DHT22;63859;51.064;4.580;2023-02-11T15:58:25;8.60;99.90
75262;DHT22;63859;51.064;4.580;2023-02-11T16:00:51;8.60;99.90
75262;DHT22;63859;51.064;4.580;2023-02-11T16:03:26;8.60;99.90
75262;DHT22;63859;51.064;4.580;2023-02-11T16:08:41;8.60;99.90
75262;DHT22;63859;51.064;4.580;2023-02-11T16:11:28;8.60;99.90
75262;DHT22;63859;51.064;4.580;2023-02-11T16:13:55;8.70;99.90
75262;DHT22;63859;51.064;4.580;2023-02-11T16:16:28;8.70;99.90
75262;DHT22;63859;51.064;4.580;2023-02-11T16:18:58;8.60;99.90
75262;DHT22;63859;51.064;4.580;2023-02-11T16:21:30;8.50;99.90
75262;DHT22;63859;51.064;4.580;2023-02-11T16:23:59;8.50;99.90
75262;DHT22;63859;51.064;4.580;2023-02-11T16:26:36;8.50;99.90
75262;DHT22;63859;51.064;4.580;2023-02-11T16:29:14;8.50;99.90
75262;DHT22;63859;51.064;4.580;2023-02-11T16:31:43;8.50;99.90
75262;DHT22;63859;51.064;4.580;2023-02-11T16:34:15;8.50;99.90
75262;DHT22;63859;51.064;4.580;2023-02-11T16:36:41;8.50;99.90
75262;DHT22;63859;51.064;4.580;2023-02-11T16:39:07;8.50;99.90
75262;DHT22;63859;51.064;4.580;2023-02-11T16:41:32;8.50;99.90
75262;DHT22;63859;51.064;4.580;2023-02-11T16:43:58;8.60;99.90
75262;DHT22;63859;51.064;4.580;2023-02-11T16:46:24;8.50;99.90
75262;DHT22;63859;51.064;4.580;2023-02-11T16:48:52;8.40;99.90
75262;DHT22;63859;51.064;4.580;2023-02-11T16:51:18;8.50;99.90
75262;DHT22;63859;51.064;4.580;2023-02-11T16:53:44;8.50;99.90
75262;DHT22;63859;51.064;4.580;2023-02-11T16:56:18;8.40;99.90
75262;DHT22;63859;51.064;4.580;2023-02-11T16:58:44;8.40;99.90
75262;DHT22;63859;51.064;4.580;2023-02-11T17:01:10;8.40;99.90
75262;DHT22;63859;51.064;4.580;2023-02-11T17:03:38;8.40;99.90
75262;DHT22;63859;51.064;4.580;2023-02-11T17:06:12;8.50;99.90
75262;DHT22;63859;51.064;4.580;2023-02-11T17:08:38;8.40;99.90
75262;DHT22;63859;51.064;4.580;2023-02-11T17:11:05;8.40;99.90
75262;DHT22;63859;51.064;4.580;2023-02-11T17:13:31;8.30;99.90
75262;DHT22;63859;51.064;4.580;2023-02-11T17:15:57;8.30;99.90
75262;DHT22;63859;51.064;4.580;2023-02-11T17:18:22;8.30;99.90
75262;DHT22;63859;51.064;4.580;2023-02-11T17:20:48;8.30;99.90
75262;DHT22;63859;51.064;4.580;2023-02-11T17:23:14;8.30;99.90
75262;DHT22;63859;51.064;4.580;2023-02-11T17:25:39;8.30;99.90
75262;DHT22;63859;51.064;4.580;2023-02-11T17:28:07;8.30;99.90
75262;DHT22;63859;51.064;4.580;2023-02-11T17:30:32;8.30;99.90
75262;DHT22;63859;51.064;4.580;2023-02-11T17:32:58;8.30;99.90
75262;DHT22;63859;51.064;4.580;2023-02-11T17:35:24;8.30;99.90
75262;DHT22;63859;51.064;4.580;2023-02-11T17:37:49;8.30;99.90
75262;DHT22;63859;51.064;4.580;2023-02-11T17:40:15;8.20;99.90
75262;DHT22;63859;51.064;4.580;2023-02-11T17:42:41;8.30;99.90
75262;DHT22;63859;51.064;4.580;2023-02-11T17:45:07;8.40;99.90
75262;DHT22;63859;51.064;4.580;2023-02-11T17:47:33;8.30;99.90
75262;DHT22;63859;51.064;4.580;2023-02-11T17:49:59;8.30;99.90
75262;DHT22;63859;51.064;4.580;2023-02-11T17:52:25;8.30;99.90
75262;DHT22;63859;51.064;4.580;2023-02-11T17:54:53;8.30;99.90
75262;DHT22;63859;51.064;4.580;2023-02-11T17:57:18;8.30;99.90
75262;DHT22;63859;51.064;4.580;2023-02-11T17:59:44;8.30;99.90
75262;DHT22;63859;51.064;4.580;2023-02-11T18:02:13;8.30;99.90
75262;DHT22;63859;51.064;4.580;2023-02-11T18:04:39;8.30;99.90
75262;DHT22;63859;51.064;4.580;2023-02-11T18:07:05;8.20;99.90
75262;DHT22;63859;51.064;4.580;2023-02-11T18:09:36;8.20;99.90
75262;DHT22;63859;51.064;4.580;2023-02-11T18:12:02;8.20;99.90
75262;DHT22;63859;51.064;4.580;2023-02-11T18:14:28;8.20;99.90
75262;DHT22;63859;51.064;4.580;2023-02-11T18:16:53;8.20;99.90
75262;DHT22;63859;51.064;4.580;2023-02-11T18:19:19;8.20;99.90
75262;DHT22;63859;51.064;4.580;2023-02-11T18:21:44;8.40;99.90
75262;DHT22;63859;51.064;4.580;2023-02-11T18:24:13;8.20;99.90
75262;DHT22;63859;51.064;4.580;2023-02-11T18:26:39;8.20;99.90
75262;DHT22;63859;51.064;4.580;2023-02-11T18:29:04;8.10;99.90
75262;DHT22;63859;51.064;4.580;2023-02-11T18:31:31;8.20;99.90